SBFZ/FOR METAR and TAF weather

Enter ICAO airport designator
Station Type Date Time Source
SBFZ METAR 2019/06/26 06:00 UTC NOAA

SBFZ 260600Z 13006KT 9999 SCT018 26/21 Q1013


Station Type Date Time Source
SBFZ Decoded METAR 2019/06/26 06:00 UTC NOAA

Fortaleza / pinto Martins , Brazil (SBFZ) 03-47S 038-32W 25M
Jun 26, 2019 - 02:00 AM EDT / 2019.06.26 0600 UTC
Wind: from the SE (130 degrees) at 7 MPH (6 KT):0
Visibility: greater than 7 mile(s):0
Sky conditions: partly cloudy
Temperature: 78 F (26 C)
Dew Point: 69 F (21 C)
Relative Humidity: 73%
Pressure (altimeter): 29.91 in. Hg (1013 hPa)
ob: SBFZ 260600Z 13006KT 9999 SCT018 26/21 Q1013
cycle: 6

Station Type Date Time Source
SBFZ TAF 2019/06/26 06:12 UTC NOAA

TAF TAF SBFZ 260400Z 2606/2706 09011KT 9999 SCT020 TN25/2606Z TX30/2614Z
BECMG 2623/2701 09008KT SCT018
RMK PFM

Example: see airport list